YSI weather

Parry Sound/Frying Pan Island-Sans Souci Seaplane Base
Frying Pan Island, Ontario, Canada

Public forecast

Using degrees Celsius for public forecast. Weather courtesy of forecast.io.

METAR (pilot weather report)

Closest report is Muskoka Airport, 37.3 nm (69.1 km) ESE. Retrieved 2019/05/26 16:00 UTC (29 minutes ago):

CYQA 261600Z AUTO 25006KT 9SM CLR 16/10 A2996 RMK SLP150 DENSITY ALT 1200FT

TAF (pilot weather forecast)

Closest forecast is Muskoka Airport, 37.3 nm (69.1 km) ESE. Retrieved 2019/05/26 14:39 UTC (2 hours ago):

TAF CYQA 261338Z 2614/2702 30007KT P6SM FEW015 TEMPO 2614/2616 BKN015 FM261600 29010KT P6SM SCT030 BECMG 2623/2701 30006KT RMK FCST BASED ON AUTO OBS. NXT FCST BY 262000Z